Terminal Aerodrome Forecast
Issued by NWS

Home | Current Version | Previous Version | Text Only | Print | Product List | Glossary On
Versions: 1 2 3 4 5 6 7 8 9 10 11 12 13 14
000
FTUS41 KBOX 270541 AAA
TAFBED
TAF AMD
KBED 270541Z 2706/2806 17005KT P6SM OVC050
     FM270800 19005KT P6SM OVC025
     FM271200 VRB03KT 3SM -SHRA BR OVC008
     FM271400 26004KT 3SM BR BKN008
     FM271600 28005KT P6SM BKN010
     FM271900 27004KT P6SM BKN035
     FM272100 VRB03KT P6SM SCT250
     FM280300 00000KT 3SM BR BKN025=

USA.gov is the U.S. government's official web portal to all federal, state and local government web resources and services.